Time;durP1;ratioP1;P1;durP2;ratioP2;P2;SDS_P1;SDS_P2;PMS_P1;PMS_P2;Temp;Humidity;BMP_temperature;BMP_pressure;BME280_temperature;BME280_humidity;BME280_pressure;Samples;Min_cycle;Max_cycle;Signal;HPM_P1;HPM_P2
2023/09/01 00:01:15;;;;;;;1.05;0.80;;;;;;;12.56;100.00;100460.50;5106365;28;20055;-67
2023/09/01 00:03:42;;;;;;;2.53;1.05;;;;;;;12.56;100.00;100456.09;5111330;28;20051;-67
2023/09/01 00:06:13;;;;;;;1.95;0.95;;;;;;;12.53;100.00;100456.25;5112739;28;20389;-67
2023/09/01 00:08:41;;;;;;;1.70;1.00;;;;;;;12.37;100.00;100455.31;5102974;28;20052;-67
2023/09/01 00:11:08;;;;;;;1.73;0.98;;;;;;;12.37;100.00;100448.28;5108157;28;20051;-67
2023/09/01 00:13:35;;;;;;;1.52;0.90;;;;;;;12.50;100.00;100459.88;5111047;28;20051;-67
2023/09/01 00:16:02;;;;;;;2.42;1.00;;;;;;;12.53;100.00;100472.00;5111500;28;20079;-67
2023/09/01 00:18:30;;;;;;;2.47;1.10;;;;;;;12.21;100.00;100444.72;5108880;28;20057;-67
2023/09/01 00:20:58;;;;;;;4.05;1.27;;;;;;;12.29;100.00;100459.16;5100673;28;20048;-67
2023/09/01 00:23:25;;;;;;;2.97;1.20;;;;;;;12.27;100.00;100457.53;5098045;28;20051;-67
2023/09/01 00:25:56;;;;;;;2.33;1.00;;;;;;;12.34;100.00;100464.19;5106389;28;20048;-67
2023/09/01 00:28:24;;;;;;;4.20;1.15;;;;;;;12.28;100.00;100465.34;5104085;28;20051;-66
2023/09/01 00:30:52;;;;;;;2.92;1.25;;;;;;;12.23;100.00;100464.69;5101989;28;20474;-66
2023/09/01 00:33:19;;;;;;;2.95;1.27;;;;;;;12.14;100.00;100467.78;5102122;28;20113;-67
2023/09/01 00:35:48;;;;;;;3.60;1.23;;;;;;;12.05;100.00;100470.84;5097984;28;20335;-66
2023/09/01 00:38:15;;;;;;;2.60;1.10;;;;;;;11.92;100.00;100462.72;5100460;28;20040;-66
2023/09/01 00:40:42;;;;;;;1.48;1.00;;;;;;;11.96;100.00;100478.22;5106987;28;20047;-67
2023/09/01 00:43:08;;;;;;;3.13;1.20;;;;;;;11.85;100.00;100462.13;5106186;28;20051;-67
2023/09/01 00:45:37;;;;;;;2.55;1.13;;;;;;;11.95;100.00;100476.53;5095551;28;20461;-67
2023/09/01 00:48:06;;;;;;;3.22;0.90;;;;;;;12.01;100.00;100478.03;5095465;28;20055;-67
2023/09/01 00:50:35;;;;;;;1.67;0.90;;;;;;;12.04;100.00;100474.38;5103699;28;20050;-67
2023/09/01 00:53:05;;;;;;;2.00;1.00;;;;;;;11.84;100.00;100476.16;5109224;28;20070;-67
2023/09/01 00:55:35;;;;;;;2.75;1.10;;;;;;;11.80;100.00;100476.38;5106885;28;20055;-67
2023/09/01 00:58:02;;;;;;;1.02;0.80;;;;;;;11.85;100.00;100479.66;5096023;28;20040;-67
2023/09/01 01:00:32;;;;;;;2.33;1.08;;;;;;;11.93;100.00;100488.03;5105936;28;20066;-66
2023/09/01 01:03:04;;;;;;;2.20;1.00;;;;;;;12.01;100.00;100485.91;5099377;28;20105;-67
2023/09/01 01:05:46;;;;;;;1.63;0.95;;;;;;;12.09;100.00;100486.41;5093737;28;20059;-67
2023/09/01 01:08:27;;;;;;;2.33;1.13;;;;;;;11.85;100.00;100469.16;5095459;28;20055;-67
2023/09/01 01:11:06;;;;;;;3.22;1.20;;;;;;;11.53;100.00;100474.97;5103909;28;20086;-67
2023/09/01 01:13:39;;;;;;;4.55;1.15;;;;;;;11.23;100.00;100463.25;5096923;28;20122;-67
2023/09/01 01:16:07;;;;;;;2.78;1.10;;;;;;;11.35;100.00;100470.53;5102351;28;20340;-67
2023/09/01 01:18:36;;;;;;;1.67;1.00;;;;;;;11.65;100.00;100488.41;5095837;28;20443;-67
2023/09/01 01:21:08;;;;;;;3.88;1.13;;;;;;;11.62;100.00;100481.56;5109431;28;20047;-67
2023/09/01 01:23:36;;;;;;;2.27;1.00;;;;;;;11.61;100.00;100481.63;5109420;28;20047;-67
2023/09/01 01:26:04;;;;;;;3.63;1.10;;;;;;;11.58;100.00;100464.28;5110747;28;20460;-67
2023/09/01 01:28:31;;;;;;;3.38;1.23;;;;;;;11.55;100.00;100474.91;5105274;28;20047;-67
2023/09/01 01:30:57;;;;;;;2.03;1.10;;;;;;;11.52;100.00;100470.63;5125078;27;20050;-67
2023/09/01 01:34:00;;;;;;;2.88;1.30;;;;;;;11.37;100.00;100485.28;5109354;28;20385;-67
2023/09/01 01:36:35;;;;;;;2.65;1.20;;;;;;;11.18;100.00;100487.03;5098035;28;20401;-66
2023/09/01 01:39:05;;;;;;;3.00;1.15;;;;;;;11.30;100.00;100485.66;5104755;28;20522;-67
2023/09/01 01:41:53;;;;;;;4.15;1.20;;;;;;;11.29;100.00;100495.25;5105473;28;20051;-67
2023/09/01 01:44:32;;;;;;;2.60;1.20;;;;;;;11.11;100.00;100503.94;5104310;28;20138;-67
2023/09/01 01:47:00;;;;;;;3.70;1.23;;;;;;;10.98;100.00;100506.25;5109387;28;20044;-67
2023/09/01 01:49:28;;;;;;;3.50;1.38;;;;;;;11.01;100.00;100495.63;5099030;28;20052;-67
2023/09/01 01:51:54;;;;;;;2.47;1.20;;;;;;;10.86;100.00;100501.53;5100901;28;20058;-67
2023/09/01 01:54:21;;;;;;;1.90;1.10;;;;;;;10.89;100.00;100499.63;5110051;28;20074;-67
2023/09/01 01:56:48;;;;;;;3.10;1.33;;;;;;;11.05;100.00;100506.81;5095723;28;20051;-67
2023/09/01 01:59:14;;;;;;;3.08;1.23;;;;;;;11.11;100.00;100498.69;5103123;28;20052;-67
2023/09/01 02:01:41;;;;;;;2.88;1.10;;;;;;;10.85;100.00;100502.44;5102240;28;20048;-67
2023/09/01 02:04:07;;;;;;;3.75;1.20;;;;;;;10.68;100.00;100506.63;5110339;28;20046;-66
2023/09/01 02:06:34;;;;;;;2.15;1.30;;;;;;;10.50;100.00;100504.75;5114475;28;20063;-66
2023/09/01 02:09:02;;;;;;;2.45;1.15;;;;;;;10.54;100.00;100509.81;5111559;28;20054;-67
2023/09/01 02:11:29;;;;;;;2.70;1.23;;;;;;;10.50;100.00;100503.00;5127842;27;20484;-67
2023/09/01 02:13:56;;;;;;;5.90;1.45;;;;;;;10.54;100.00;100512.44;5109503;28;20061;-67
2023/09/01 02:16:24;;;;;;;1.98;1.10;;;;;;;10.55;100.00;100508.91;5113590;28;20400;-67
2023/09/01 02:18:50;;;;;;;3.05;1.10;;;;;;;10.54;100.00;100515.03;5113400;28;20043;-66
2023/09/01 02:21:19;;;;;;;3.55;1.20;;;;;;;10.58;100.00;100511.38;5107695;28;20048;-67
2023/09/01 02:23:47;;;;;;;2.70;1.25;;;;;;;10.42;100.00;100508.53;5107376;28;20063;-66
2023/09/01 02:26:20;;;;;;;3.63;1.23;;;;;;;10.63;100.00;100516.44;5098757;28;20143;-67
2023/09/01 02:28:49;;;;;;;2.85;1.20;;;;;;;10.78;100.00;100520.16;5114422;28;20094;-66
2023/09/01 02:31:17;;;;;;;3.78;1.10;;;;;;;10.66;100.00;100505.84;5107111;28;20043;-66
2023/09/01 02:33:44;;;;;;;3.08;1.17;;;;;;;10.55;100.00;100513.25;5112175;28;20047;-66
2023/09/01 02:36:30;;;;;;;2.55;1.23;;;;;;;10.51;100.00;100509.94;5099626;28;20055;-66
2023/09/01 02:38:57;;;;;;;4.57;1.40;;;;;;;10.46;100.00;100514.50;5113328;27;20052;-66
2023/09/01 02:41:25;;;;;;;1.95;1.10;;;;;;;10.38;100.00;100513.97;5112543;28;20489;-66
2023/09/01 02:43:53;;;;;;;2.58;1.20;;;;;;;10.15;100.00;100518.31;5104133;28;20052;-67
2023/09/01 02:46:20;;;;;;;3.90;1.55;;;;;;;9.98;100.00;100518.97;5106971;28;20044;-66
2023/09/01 02:48:47;;;;;;;1.85;1.10;;;;;;;10.18;100.00;100519.94;5100405;28;20051;-66
2023/09/01 02:51:13;;;;;;;2.67;1.15;;;;;;;10.12;100.00;100517.59;5113149;28;20052;-66
2023/09/01 02:53:41;;;;;;;2.92;1.20;;;;;;;10.08;100.00;100522.09;5104140;28;20047;-66
2023/09/01 02:56:08;;;;;;;2.22;1.13;;;;;;;9.93;100.00;100496.50;5112465;28;20051;-66
2023/09/01 02:58:35;;;;;;;4.00;1.50;;;;;;;10.06;100.00;100523.91;5110715;28;20043;-66
2023/09/01 03:01:09;;;;;;;4.10;1.35;;;;;;;10.14;100.00;100515.75;5107664;28;20060;-66
2023/09/01 03:03:38;;;;;;;3.92;1.30;;;;;;;10.18;100.00;100518.19;5095389;28;20051;-66
2023/09/01 03:06:05;;;;;;;2.90;1.13;;;;;;;10.25;100.00;100514.44;5112874;28;20048;-66
2023/09/01 03:08:32;;;;;;;2.55;1.10;;;;;;;10.57;100.00;100524.53;5110180;28;20489;-66
2023/09/01 03:10:59;;;;;;;2.90;1.20;;;;;;;10.56;100.00;100521.06;5101496;28;20086;-66
2023/09/01 03:13:26;;;;;;;3.65;1.30;;;;;;;10.34;100.00;100517.59;5110732;28;20056;-66
2023/09/01 03:15:54;;;;;;;3.03;1.40;;;;;;;10.30;100.00;100521.22;5112220;28;20048;-66
2023/09/01 03:18:21;;;;;;;2.67;1.45;;;;;;;10.37;100.00;100530.56;5124357;27;20055;-66
2023/09/01 03:20:50;;;;;;;4.15;1.30;;;;;;;10.33;100.00;100526.38;5112977;28;20083;-66
2023/09/01 03:23:17;;;;;;;1.92;1.10;;;;;;;10.35;100.00;100533.25;5112437;28;20496;-66
2023/09/01 03:25:55;;;;;;;2.70;1.20;;;;;;;10.21;100.00;100533.75;5125645;27;20515;-66
2023/09/01 03:28:22;;;;;;;2.38;1.15;;;;;;;10.13;100.00;100529.72;5110862;28;20043;-67
2023/09/01 03:30:48;;;;;;;2.83;1.10;;;;;;;10.35;100.00;100543.72;5112357;28;20584;-66
2023/09/01 03:33:15;;;;;;;3.30;1.30;;;;;;;10.47;100.00;100541.53;5107729;28;20060;-66
2023/09/01 03:35:42;;;;;;;2.28;1.00;;;;;;;10.54;100.00;100541.22;5098368;28;20048;-66
2023/09/01 03:38:08;;;;;;;4.53;1.20;;;;;;;10.66;100.00;100539.88;5111972;28;20054;-66
2023/09/01 03:40:36;;;;;;;2.55;1.10;;;;;;;10.61;100.00;100523.50;5110801;28;20401;-66
2023/09/01 03:43:03;;;;;;;2.35;1.10;;;;;;;10.80;100.00;100536.66;5110542;28;20489;-67
2023/09/01 03:45:29;;;;;;;2.38;1.00;;;;;;;10.56;100.00;100526.28;5110414;28;20369;-66
2023/09/01 03:47:56;;;;;;;4.63;1.25;;;;;;;10.43;100.00;100532.97;5111557;28;20058;-66
2023/09/01 03:50:23;;;;;;;2.45;1.25;;;;;;;10.45;100.00;100534.59;5104061;28;20401;-66
2023/09/01 03:52:49;;;;;;;2.75;1.10;;;;;;;10.42;100.00;100539.94;5094996;28;20456;-66
2023/09/01 03:55:16;;;;;;;1.70;0.90;;;;;;;10.22;100.00;100538.09;5104776;28;20538;-66
2023/09/01 03:57:43;;;;;;;2.10;1.10;;;;;;;10.25;100.00;100542.34;5100221;28;20508;-66
2023/09/01 04:00:11;;;;;;;3.78;1.23;;;;;;;10.21;100.00;100535.53;5103046;28;20332;-66
2023/09/01 04:02:38;;;;;;;2.72;1.20;;;;;;;9.97;100.00;100546.03;5097942;28;20051;-66
2023/09/01 04:05:05;;;;;;;2.70;1.20;;;;;;;9.83;100.00;100550.94;5103986;28;20097;-65
2023/09/01 04:07:32;;;;;;;2.83;1.10;;;;;;;9.80;100.00;100548.44;5097232;28;20060;-66
2023/09/01 04:09:59;;;;;;;1.90;1.20;;;;;;;9.75;100.00;100530.28;5099928;28;20469;-66
2023/09/01 04:12:25;;;;;;;2.25;1.13;;;;;;;9.61;100.00;100541.25;5105128;28;20134;-66
2023/09/01 04:14:52;;;;;;;3.03;1.20;;;;;;;9.64;100.00;100553.38;5107032;28;20055;-67
2023/09/01 04:17:19;;;;;;;2.72;1.10;;;;;;;9.63;100.00;100544.69;5103655;28;20043;-67
2023/09/01 04:19:47;;;;;;;2.35;1.08;;;;;;;9.54;100.00;100545.00;5104546;28;20058;-67
2023/09/01 04:22:14;;;;;;;3.00;1.15;;;;;;;9.56;100.00;100544.94;5097236;28;20054;-67
2023/09/01 04:24:41;;;;;;;2.70;1.10;;;;;;;9.43;100.00;100555.00;5100879;28;20056;-66
2023/09/01 04:27:08;;;;;;;2.72;1.17;;;;;;;9.45;100.00;100556.63;5105285;28;20708;-66
2023/09/01 04:29:36;;;;;;;1.88;1.05;;;;;;;9.31;100.00;100551.94;5110825;28;20055;-67
2023/09/01 04:32:03;;;;;;;2.63;1.10;;;;;;;9.48;100.00;100564.38;5105385;28;20051;-66
2023/09/01 04:34:32;;;;;;;3.70;1.25;;;;;;;9.41;100.00;100560.28;5097623;28;20051;-66
2023/09/01 04:36:59;;;;;;;2.28;1.10;;;;;;;9.19;100.00;100541.03;5106554;28;20169;-66
2023/09/01 04:39:26;;;;;;;2.92;1.20;;;;;;;9.18;100.00;100560.25;5110174;28;20066;-66
2023/09/01 04:41:52;;;;;;;2.60;1.00;;;;;;;9.11;100.00;100546.53;5108177;28;20113;-66
2023/09/01 04:44:19;;;;;;;3.03;1.20;;;;;;;9.21;100.00;100554.91;5092685;28;20485;-67
2023/09/01 04:46:45;;;;;;;1.83;1.00;;;;;;;9.15;100.00;100545.50;5106310;28;20048;-66
2023/09/01 04:49:12;;;;;;;4.03;1.23;;;;;;;9.21;100.00;100561.00;5100979;28;20039;-66
2023/09/01 04:51:39;;;;;;;2.20;1.00;;;;;;;9.18;100.00;100562.84;5106370;28;20051;-66
2023/09/01 04:54:07;;;;;;;2.20;1.23;;;;;;;9.22;100.00;100562.69;5094480;28;20451;-67
2023/09/01 04:56:33;;;;;;;1.60;0.98;;;;;;;9.36;100.00;100570.03;5101913;28;20055;-66
2023/09/01 04:59:00;;;;;;;2.63;1.13;;;;;;;9.20;100.00;100564.50;5094851;28;20040;-67
2023/09/01 05:01:27;;;;;;;1.73;1.00;;;;;;;9.17;100.00;100572.47;5092365;28;20044;-66
2023/09/01 05:03:55;;;;;;;3.88;1.40;;;;;;;9.12;100.00;100570.00;5105075;28;20051;-67
2023/09/01 05:06:21;;;;;;;3.10;1.10;;;;;;;9.19;100.00;100570.66;5092056;28;20486;-67
2023/09/01 05:08:48;;;;;;;4.90;1.30;;;;;;;9.18;100.00;100568.94;5096278;28;20043;-66
2023/09/01 05:11:15;;;;;;;2.38;1.27;;;;;;;9.18;100.00;100570.69;5105720;28;20056;-66
2023/09/01 05:13:41;;;;;;;3.15;1.17;;;;;;;9.18;100.00;100571.53;5096110;28;20056;-66
2023/09/01 05:16:10;;;;;;;2.90;1.20;;;;;;;9.23;100.00;100581.84;5099572;28;20412;-66
2023/09/01 05:18:37;;;;;;;3.58;1.30;;;;;;;9.16;100.00;100575.97;5097850;28;20043;-66
2023/09/01 05:21:03;;;;;;;2.25;1.05;;;;;;;9.02;100.00;100579.03;5098212;28;20047;-66
2023/09/01 05:23:32;;;;;;;2.20;1.10;;;;;;;8.92;100.00;100568.06;5095332;28;20048;-66
2023/09/01 05:25:58;;;;;;;5.20;1.35;;;;;;;9.16;100.00;100580.34;5109901;28;20051;-66
2023/09/01 05:28:26;;;;;;;3.15;1.10;;;;;;;9.19;100.00;100588.94;5110187;28;20059;-66
2023/09/01 05:30:55;;;;;;;3.38;1.27;;;;;;;9.04;100.00;100584.22;5097528;28;20054;-66
2023/09/01 05:33:22;;;;;;;2.97;1.45;;;;;;;9.10;100.00;100591.84;5091033;28;20066;-66
2023/09/01 05:35:49;;;;;;;3.28;1.35;;;;;;;9.17;100.00;100595.09;5092165;28;20060;-66
2023/09/01 05:38:16;;;;;;;2.67;1.27;;;;;;;9.21;100.00;100601.94;5100110;28;20047;-67
2023/09/01 05:40:43;;;;;;;4.28;1.50;;;;;;;9.12;100.00;100590.88;5108443;28;20122;-67
2023/09/01 05:43:12;;;;;;;4.35;1.58;;;;;;;9.19;100.00;100607.22;5105156;28;20043;-66
2023/09/01 05:45:38;;;;;;;4.22;1.38;;;;;;;9.19;100.00;100606.34;5114423;27;20048;-68
2023/09/01 05:48:05;;;;;;;3.90;1.33;;;;;;;9.28;100.00;100611.28;5109935;28;20044;-67
2023/09/01 05:50:32;;;;;;;2.58;1.20;;;;;;;9.26;100.00;100589.53;5116358;27;20048;-66
2023/09/01 05:52:59;;;;;;;4.93;1.70;;;;;;;9.42;100.00;100610.78;5113855;28;20062;-66
2023/09/01 05:55:29;;;;;;;3.30;1.30;;;;;;;9.48;100.00;100618.41;5103824;28;20048;-66
2023/09/01 05:57:56;;;;;;;4.85;1.45;;;;;;;9.26;100.00;100611.31;5108453;28;20680;-66
2023/09/01 06:00:23;;;;;;;3.83;1.35;;;;;;;9.30;100.00;100604.22;5110375;28;20048;-66
2023/09/01 06:02:51;;;;;;;4.50;1.65;;;;;;;9.42;100.00;100626.47;5115427;27;20062;-66
2023/09/01 06:05:18;;;;;;;5.38;2.00;;;;;;;9.30;100.00;100619.91;5116157;27;20044;-67
2023/09/01 06:07:45;;;;;;;3.78;1.30;;;;;;;9.52;100.00;100625.22;5109990;27;20047;-66
2023/09/01 06:10:11;;;;;;;7.30;1.60;;;;;;;9.65;100.00;100618.69;5113950;27;20048;-66
2023/09/01 06:12:38;;;;;;;3.08;1.25;;;;;;;9.74;100.00;100627.09;5115020;28;20047;-66
2023/09/01 06:15:05;;;;;;;4.03;1.50;;;;;;;9.65;100.00;100626.53;5115253;27;20054;-67
2023/09/01 06:17:32;;;;;;;6.18;1.63;;;;;;;9.67;100.00;100634.31;5110767;27;20077;-66
2023/09/01 06:20:12;;;;;;;7.20;1.73;;;;;;;9.67;100.00;100629.09;5110035;28;20564;-66
2023/09/01 06:22:45;;;;;;;5.60;1.58;;;;;;;9.88;100.00;100640.53;5110286;28;20521;-67
2023/09/01 06:25:16;;;;;;;5.00;1.67;;;;;;;10.10;100.00;100650.22;5116147;27;20043;-67
2023/09/01 06:27:42;;;;;;;3.72;1.30;;;;;;;10.22;100.00;100636.69;5108824;28;20048;-67
2023/09/01 06:30:09;;;;;;;3.97;1.27;;;;;;;10.36;100.00;100642.28;5109189;28;20055;-66
2023/09/01 06:32:36;;;;;;;3.13;1.45;;;;;;;10.40;100.00;100640.38;5114919;28;20744;-66
2023/09/01 06:35:03;;;;;;;6.40;1.40;;;;;;;10.58;100.00;100655.38;5113995;27;20618;-66
2023/09/01 06:37:29;;;;;;;3.55;1.35;;;;;;;10.48;100.00;100651.41;5114010;28;20416;-66
2023/09/01 06:39:57;;;;;;;2.65;1.20;;;;;;;10.61;100.00;100655.25;5101627;28;20672;-67
2023/09/01 06:42:25;;;;;;;3.65;1.35;;;;;;;10.55;100.00;100638.94;5131259;27;20393;-66
2023/09/01 06:44:52;;;;;;;4.38;1.50;;;;;;;10.77;100.00;100646.81;5115703;28;20058;-66
2023/09/01 06:47:18;;;;;;;3.95;1.35;;;;;;;11.16;100.00;100657.44;5116261;28;20492;-66
2023/09/01 06:49:45;;;;;;;3.67;1.45;;;;;;;11.32;100.00;100668.13;5115115;28;20073;-66
2023/09/01 06:52:13;;;;;;;4.22;1.50;;;;;;;11.40;100.00;100667.78;5104953;28;20407;-66
2023/09/01 06:54:39;;;;;;;4.18;1.42;;;;;;;11.34;100.00;100647.09;5105386;28;20043;-66
2023/09/01 06:57:06;;;;;;;3.90;1.30;;;;;;;11.70;100.00;100673.50;5127315;27;20171;-66
2023/09/01 06:59:33;;;;;;;3.42;1.30;;;;;;;11.91;100.00;100665.66;5098180;28;20052;-67
2023/09/01 07:02:00;;;;;;;4.10;1.42;;;;;;;11.64;100.00;100633.59;5108072;28;20440;-67
2023/09/01 07:04:27;;;;;;;4.10;1.30;;;;;;;12.02;100.00;100683.53;5096624;28;20386;-67
2023/09/01 07:06:54;;;;;;;2.88;1.20;;;;;;;12.06;100.00;100675.47;5107779;28;20087;-68
2023/09/01 07:09:20;;;;;;;4.10;1.30;;;;;;;12.15;100.00;100675.06;5109384;28;20048;-67
2023/09/01 07:11:47;;;;;;;4.60;1.77;;;;;;;12.27;100.00;100673.66;5108412;28;20114;-67
2023/09/01 07:14:13;;;;;;;5.40;1.85;;;;;;;12.32;100.00;100683.94;5102757;28;20386;-67
2023/09/01 07:16:40;;;;;;;2.85;1.30;;;;;;;12.30;100.00;100680.53;5107439;28;20044;-67
2023/09/01 07:19:07;;;;;;;3.67;1.30;;;;;;;12.39;100.00;100690.59;5108695;28;20039;-67
2023/09/01 07:21:33;;;;;;;4.22;1.40;;;;;;;12.40;100.00;100681.81;5107336;28;20062;-67
2023/09/01 07:24:00;;;;;;;4.03;1.80;;;;;;;12.27;100.00;100701.66;5104760;28;20051;-67
2023/09/01 07:26:27;;;;;;;1.98;1.17;;;;;;;12.50;100.00;100680.47;5110074;28;20141;-67
2023/09/01 07:28:53;;;;;;;4.82;1.55;;;;;;;12.53;100.00;100696.06;5102321;28;20051;-67
2023/09/01 07:31:20;;;;;;;2.90;1.40;;;;;;;12.42;100.00;100708.84;5107648;28;20050;-67
2023/09/01 07:33:47;;;;;;;4.38;1.60;;;;;;;12.67;100.00;100702.47;5097621;28;20070;-67
2023/09/01 07:36:13;;;;;;;2.80;1.17;;;;;;;12.70;100.00;100702.34;5101040;28;20054;-68
2023/09/01 07:38:41;;;;;;;3.03;1.38;;;;;;;12.84;100.00;100704.31;5105717;28;20043;-68
2023/09/01 07:41:08;;;;;;;3.40;1.45;;;;;;;12.82;100.00;100700.88;5109229;28;20433;-67
2023/09/01 07:43:35;;;;;;;5.18;1.35;;;;;;;13.08;100.00;100711.03;5101701;28;20300;-67
2023/09/01 07:46:03;;;;;;;2.72;1.35;;;;;;;13.25;100.00;100709.34;5112699;28;20423;-68
2023/09/01 07:48:30;;;;;;;4.40;1.33;;;;;;;13.58;100.00;100717.38;5097706;28;20112;-67
2023/09/01 07:50:57;;;;;;;4.78;1.00;;;;;;;13.68;100.00;100708.03;5111484;28;20078;-67
2023/09/01 07:53:24;;;;;;;2.97;1.20;;;;;;;13.73;100.00;100699.94;5109378;28;20047;-67
2023/09/01 07:55:51;;;;;;;3.90;1.25;;;;;;;13.58;100.00;100714.72;5112257;27;20776;-67
2023/09/01 07:58:18;;;;;;;2.72;1.02;;;;;;;13.66;100.00;100722.22;5103571;28;20040;-67
2023/09/01 08:00:45;;;;;;;3.88;1.25;;;;;;;13.91;100.00;100713.91;5103914;28;20047;-67
2023/09/01 08:03:12;;;;;;;3.45;1.23;;;;;;;14.27;100.00;100710.31;5096878;28;20122;-68
2023/09/01 08:05:40;;;;;;;4.03;1.10;;;;;;;14.68;100.00;100714.25;5098134;28;20051;-68
2023/09/01 08:08:07;;;;;;;3.28;1.20;;;;;;;14.99;100.00;100714.25;5108496;28;20305;-68
2023/09/01 08:10:34;;;;;;;2.85;1.15;;;;;;;15.09;100.00;100721.66;5100913;28;20439;-68
2023/09/01 08:13:01;;;;;;;3.55;1.35;;;;;;;15.36;100.00;100713.94;5107761;28;20130;-67
2023/09/01 08:15:28;;;;;;;3.75;1.20;;;;;;;15.26;100.00;100715.41;5102863;28;20056;-68
2023/09/01 08:17:55;;;;;;;5.20;1.45;;;;;;;14.93;100.00;100711.97;5111590;28;20059;-68
2023/09/01 08:20:22;;;;;;;2.47;1.10;;;;;;;15.28;100.00;100713.53;5110110;28;20409;-67
2023/09/01 08:22:49;;;;;;;3.90;1.30;;;;;;;15.62;100.00;100728.25;5108334;28;20047;-67
2023/09/01 08:25:16;;;;;;;2.42;1.20;;;;;;;16.45;100.00;100725.91;5111937;28;20425;-68
2023/09/01 08:27:42;;;;;;;3.25;1.30;;;;;;;17.33;100.00;100730.06;5110570;28;20048;-68
2023/09/01 08:30:10;;;;;;;2.35;1.20;;;;;;;17.64;100.00;100731.53;5111288;28;20532;-68
2023/09/01 08:32:40;;;;;;;6.10;1.90;;;;;;;17.84;100.00;100740.75;5099883;28;20058;-68
2023/09/01 08:35:08;;;;;;;2.25;1.00;;;;;;;18.27;100.00;100742.28;5102573;28;20047;-68
2023/09/01 08:37:35;;;;;;;3.22;1.10;;;;;;;18.30;100.00;100742.91;5111141;28;20138;-68
2023/09/01 08:40:04;;;;;;;5.28;1.70;;;;;;;17.94;100.00;100744.50;5110948;28;20040;-68
2023/09/01 08:42:33;;;;;;;3.30;1.10;;;;;;;18.12;100.00;100737.09;5106994;28;20501;-68
2023/09/01 08:45:01;;;;;;;3.95;1.40;;;;;;;18.32;100.00;100741.00;5104836;28;20464;-68
2023/09/01 08:47:32;;;;;;;4.47;1.40;;;;;;;18.38;100.00;100753.00;5104233;28;20048;-68
2023/09/01 08:49:59;;;;;;;4.18;1.50;;;;;;;18.26;100.00;100741.44;5110845;28;20036;-68
2023/09/01 08:52:27;;;;;;;4.80;1.75;;;;;;;18.14;100.00;100751.06;5107190;28;20047;-67
2023/09/01 08:54:54;;;;;;;3.72;1.33;;;;;;;18.23;100.00;100746.94;5102253;28;20063;-68
2023/09/01 08:57:21;;;;;;;4.72;1.55;;;;;;;18.93;100.00;100757.03;5102069;28;20070;-67
2023/09/01 08:59:48;;;;;;;4.47;1.15;;;;;;;19.21;100.00;100756.81;5101670;28;20070;-68
2023/09/01 09:02:15;;;;;;;5.30;1.65;;;;;;;19.36;100.00;100758.34;5096474;28;20063;-67
2023/09/01 09:04:42;;;;;;;4.85;1.70;;;;;;;18.83;100.00;100763.13;5095425;28;20051;-67
2023/09/01 09:07:20;;;;;;;3.53;1.33;;;;;;;18.97;100.00;100765.63;5101696;28;20047;-68
2023/09/01 09:09:55;;;;;;;7.47;2.20;;;;;;;19.09;100.00;100766.53;5096199;28;20130;-68
2023/09/01 09:12:23;;;;;;;5.38;1.40;;;;;;;19.08;100.00;100759.53;5102304;28;20093;-68
2023/09/01 09:14:54;;;;;;;4.25;1.40;;;;;;;18.99;100.00;100761.03;5109246;28;20058;-68
2023/09/01 09:17:44;;;;;;;7.93;1.80;;;;;;;18.91;100.00;100766.91;5104452;28;20401;-68
2023/09/01 09:20:14;;;;;;;5.10;1.70;;;;;;;19.06;100.00;100761.44;5094993;28;20455;-68
2023/09/01 09:22:50;;;;;;;4.15;1.35;;;;;;;19.26;100.00;100765.28;5093915;28;20062;-68
2023/09/01 09:25:28;;;;;;;5.05;1.75;;;;;;;19.22;100.00;100771.78;5110797;28;20040;-68
2023/09/01 09:27:57;;;;;;;5.72;1.80;;;;;;;19.13;100.00;100765.34;5109305;28;20047;-68
2023/09/01 09:30:25;;;;;;;5.57;1.60;;;;;;;19.46;100.00;100771.75;5102027;28;20048;-67
2023/09/01 09:33:06;;;;;;;5.85;2.00;;;;;;;19.25;100.00;100774.22;5101716;28;20048;-68
2023/09/01 09:35:35;;;;;;;4.32;1.40;;;;;;;19.00;100.00;100772.50;5106168;28;20406;-67
2023/09/01 09:38:02;;;;;;;4.25;1.60;;;;;;;18.92;100.00;100762.44;5103952;28;20451;-68
2023/09/01 09:40:29;;;;;;;6.13;1.45;;;;;;;18.93;100.00;100786.22;5109536;28;20127;-68
2023/09/01 09:42:59;;;;;;;5.88;1.17;;;;;;;19.18;100.00;100788.91;5101539;28;20473;-68
2023/09/01 09:45:30;;;;;;;4.97;1.20;;;;;;;19.24;100.00;100788.44;5091302;28;20113;-68
2023/09/01 09:47:59;;;;;;;3.20;1.20;;;;;;;19.17;100.00;100788.03;5096619;28;20509;-68
2023/09/01 09:50:27;;;;;;;3.13;1.30;;;;;;;19.08;100.00;100781.59;5106743;28;20493;-68
2023/09/01 09:52:58;;;;;;;3.38;1.15;;;;;;;19.24;100.00;100791.94;5099096;28;20043;-67
2023/09/01 09:55:37;;;;;;;3.10;1.13;;;;;;;19.29;100.00;100795.09;5099716;28;20413;-68
2023/09/01 09:58:07;;;;;;;4.22;1.25;;;;;;;19.35;100.00;100797.31;5092564;28;20048;-67
2023/09/01 10:00:53;;;;;;;4.47;1.25;;;;;;;19.16;100.00;100799.63;5090201;28;20486;-68
2023/09/01 10:03:24;;;;;;;4.40;1.40;;;;;;;18.58;100.00;100797.50;5089979;28;20054;-68
2023/09/01 10:05:54;;;;;;;4.05;1.30;;;;;;;18.87;100.00;100807.84;5106641;28;20055;-68
2023/09/01 10:08:21;;;;;;;3.78;1.30;;;;;;;19.03;100.00;100804.94;5106084;28;20079;-67
2023/09/01 10:10:50;;;;;;;3.85;1.35;;;;;;;19.36;100.00;100798.16;5106507;28;20052;-68
2023/09/01 10:13:19;;;;;;;6.07;1.23;;;;;;;19.44;100.00;100808.22;5105849;28;20044;-67
2023/09/01 10:15:48;;;;;;;3.80;1.38;;;;;;;19.59;100.00;100801.75;5109805;28;20047;-68
2023/09/01 10:18:16;;;;;;;6.13;1.65;;;;;;;19.37;100.00;100804.31;5105852;28;20086;-68
2023/09/01 10:20:43;;;;;;;4.68;1.45;;;;;;;18.78;100.00;100801.38;5105571;28;20035;-68
2023/09/01 10:23:11;;;;;;;4.60;1.35;;;;;;;18.63;100.00;100802.47;5106127;28;20051;-67
2023/09/01 10:25:38;;;;;;;4.35;1.38;;;;;;;19.16;100.00;100816.38;5108084;28;20411;-68
2023/09/01 10:28:10;;;;;;;3.67;1.10;;;;;;;19.18;100.00;100805.66;5106304;28;20416;-68
2023/09/01 10:30:42;;;;;;;3.28;1.17;;;;;;;19.53;100.00;100804.88;5113173;28;20054;-68
2023/09/01 10:33:26;;;;;;;3.05;1.10;;;;;;;19.59;100.00;100806.25;5113090;28;20050;-68
2023/09/01 10:35:59;;;;;;;4.32;1.48;;;;;;;19.77;100.00;100810.19;5113043;28;20047;-67
2023/09/01 10:38:36;;;;;;;2.80;1.00;;;;;;;19.81;100.00;100805.50;5112981;28;20051;-68
2023/09/01 10:41:03;;;;;;;2.92;1.23;;;;;;;19.57;100.00;100809.00;5111005;28;20051;-68
2023/09/01 10:43:33;;;;;;;6.25;1.65;;;;;;;19.59;100.00;100808.91;5123700;27;20040;-68
2023/09/01 10:46:29;;;;;;;4.07;1.25;;;;;;;19.81;100.00;100801.03;5092774;28;20516;-68
2023/09/01 10:48:58;;;;;;;3.75;1.35;;;;;;;19.81;100.00;100803.69;5103955;28;20039;-68
2023/09/01 10:51:34;;;;;;;2.72;1.23;;;;;;;20.02;100.00;100808.34;5106232;28;20062;-68
2023/09/01 10:54:23;;;;;;;6.18;2.10;;;;;;;19.61;100.00;100818.44;5103548;28;20485;-68
2023/09/01 10:56:56;;;;;;;6.70;1.63;;;;;;;19.90;100.00;100815.41;5109240;28;20469;-68
2023/09/01 10:59:35;;;;;;;3.53;1.35;;;;;;;19.96;100.00;100816.78;5109597;28;20143;-68
2023/09/01 11:02:18;;;;;;;5.80;1.65;;;;;;;19.70;100.00;100804.44;5104032;28;20070;-68
2023/09/01 11:04:46;;;;;;;5.82;1.80;;;;;;;20.03;100.00;100823.34;5109735;28;20061;-68
2023/09/01 11:07:13;;;;;;;3.47;1.30;;;;;;;19.88;100.00;100820.00;5102833;28;20051;-68
2023/09/01 11:09:42;;;;;;;4.55;1.33;;;;;;;20.06;100.00;100829.25;5103800;28;20090;-69
2023/09/01 11:12:10;;;;;;;3.47;1.13;;;;;;;20.22;100.00;100830.72;5107075;28;20147;-68
2023/09/01 11:14:51;;;;;;;2.47;1.05;;;;;;;20.22;100.00;100833.38;5109210;28;20052;-68
2023/09/01 11:17:34;;;;;;;3.47;0.90;;;;;;;20.01;100.00;100826.09;5108350;28;20485;-68
2023/09/01 11:20:03;;;;;;;4.35;1.38;;;;;;;20.37;100.00;100832.22;5101545;28;20501;-68
2023/09/01 11:22:29;;;;;;;3.80;1.20;;;;;;;20.57;100.00;100824.50;5111116;27;20098;-68
2023/09/01 11:24:56;;;;;;;4.25;1.33;;;;;;;20.55;100.00;100829.94;5097609;28;20389;-68
2023/09/01 11:27:23;;;;;;;4.18;1.60;;;;;;;19.92;100.00;100824.16;5107469;28;20048;-68